sensor_id;sensor_type;location;lat;lon;timestamp;pressure;altitude;pressure_sealevel;temperature;humidity
71457;BME280;59263;48.160;11.752;2023-03-31T00:00:39;95466.78;;;6.79;100.00
71457;BME280;59263;48.160;11.752;2023-03-31T00:03:05;95497.91;;;7.07;100.00
71457;BME280;59263;48.160;11.752;2023-03-31T00:05:36;95465.34;;;6.86;100.00
71457;BME280;59263;48.160;11.752;2023-03-31T00:08:02;95488.41;;;6.97;100.00
71457;BME280;59263;48.160;11.752;2023-03-31T00:10:29;95502.22;;;7.06;100.00
71457;BME280;59263;48.160;11.752;2023-03-31T00:12:56;95459.75;;;6.81;100.00
71457;BME280;59263;48.160;11.752;2023-03-31T00:15:22;95475.09;;;6.92;100.00
71457;BME280;59263;48.160;11.752;2023-03-31T00:17:48;95439.25;;;6.70;100.00
71457;BME280;59263;48.160;11.752;2023-03-31T00:20:13;95467.47;;;6.81;100.00
71457;BME280;59263;48.160;11.752;2023-03-31T00:22:40;95475.19;;;6.81;100.00
71457;BME280;59263;48.160;11.752;2023-03-31T00:25:12;95450.75;;;6.66;100.00
71457;BME280;59263;48.160;11.752;2023-03-31T00:27:39;95442.22;;;6.65;100.00
71457;BME280;59263;48.160;11.752;2023-03-31T00:30:06;95467.44;;;6.71;100.00
71457;BME280;59263;48.160;11.752;2023-03-31T00:32:32;95438.84;;;6.65;100.00
71457;BME280;59263;48.160;11.752;2023-03-31T00:34:57;95430.59;;;6.71;100.00
71457;BME280;59263;48.160;11.752;2023-03-31T00:37:22;95435.78;;;6.81;100.00
71457;BME280;59263;48.160;11.752;2023-03-31T00:39:48;95437.97;;;6.85;100.00
71457;BME280;59263;48.160;11.752;2023-03-31T00:42:14;95423.00;;;6.90;100.00
71457;BME280;59263;48.160;11.752;2023-03-31T00:47:52;95384.88;;;6.74;100.00
71457;BME280;59263;48.160;11.752;2023-03-31T00:50:26;95395.22;;;6.84;100.00
71457;BME280;59263;48.160;11.752;2023-03-31T00:52:59;95411.50;;;7.04;100.00
71457;BME280;59263;48.160;11.752;2023-03-31T00:55:34;95403.22;;;7.00;100.00
71457;BME280;59263;48.160;11.752;2023-03-31T00:58:02;95392.69;;;7.03;100.00
71457;BME280;59263;48.160;11.752;2023-03-31T01:00:30;95386.06;;;7.01;100.00
71457;BME280;59263;48.160;11.752;2023-03-31T01:02:58;95392.84;;;7.12;100.00
71457;BME280;59263;48.160;11.752;2023-03-31T01:05:27;95361.41;;;6.98;100.00
71457;BME280;59263;48.160;11.752;2023-03-31T01:07:58;95359.25;;;7.03;100.00
71457;BME280;59263;48.160;11.752;2023-03-31T01:10:24;95385.00;;;7.23;100.00
71457;BME280;59263;48.160;11.752;2023-03-31T01:12:53;95391.78;;;7.24;100.00
71457;BME280;59263;48.160;11.752;2023-03-31T01:15:20;95380.41;;;7.26;100.00
71457;BME280;59263;48.160;11.752;2023-03-31T01:17:46;95352.22;;;7.06;100.00
71457;BME280;59263;48.160;11.752;2023-03-31T01:23:23;95361.19;;;7.21;100.00
71457;BME280;59263;48.160;11.752;2023-03-31T01:26:04;95365.09;;;7.25;100.00
71457;BME280;59263;48.160;11.752;2023-03-31T01:28:48;95359.00;;;7.26;100.00
71457;BME280;59263;48.160;11.752;2023-03-31T01:34:15;95344.13;;;7.20;100.00
71457;BME280;59263;48.160;11.752;2023-03-31T01:36:57;95347.38;;;7.32;100.00
71457;BME280;59263;48.160;11.752;2023-03-31T01:39:56;95342.78;;;7.35;100.00
71457;BME280;59263;48.160;11.752;2023-03-31T01:42:53;95326.22;;;7.18;100.00
71457;BME280;59263;48.160;11.752;2023-03-31T01:45:43;95326.78;;;7.22;100.00
71457;BME280;59263;48.160;11.752;2023-03-31T01:48:14;95309.28;;;6.96;100.00
71457;BME280;59263;48.160;11.752;2023-03-31T01:56:20;95291.50;;;6.74;100.00
71457;BME280;59263;48.160;11.752;2023-03-31T01:58:55;95322.44;;;7.03;100.00
71457;BME280;59263;48.160;11.752;2023-03-31T02:01:28;95292.94;;;6.97;100.00
71457;BME280;59263;48.160;11.752;2023-03-31T02:03:59;95293.47;;;7.11;100.00
71457;BME280;59263;48.160;11.752;2023-03-31T02:06:33;95304.59;;;7.31;100.00
71457;BME280;59263;48.160;11.752;2023-03-31T02:09:03;95284.25;;;7.27;100.00
71457;BME280;59263;48.160;11.752;2023-03-31T02:11:31;95289.94;;;7.31;100.00
71457;BME280;59263;48.160;11.752;2023-03-31T02:13:58;95294.00;;;7.34;100.00
71457;BME280;59263;48.160;11.752;2023-03-31T02:16:27;95281.53;;;7.29;100.00
71457;BME280;59263;48.160;11.752;2023-03-31T02:18:58;95268.56;;;7.21;100.00
71457;BME280;59263;48.160;11.752;2023-03-31T02:21:35;95282.06;;;7.23;100.00
71457;BME280;59263;48.160;11.752;2023-03-31T02:24:06;95278.31;;;7.17;100.00
71457;BME280;59263;48.160;11.752;2023-03-31T02:26:37;95263.66;;;7.08;100.00
71457;BME280;59263;48.160;11.752;2023-03-31T02:29:04;95250.69;;;7.10;100.00
71457;BME280;59263;48.160;11.752;2023-03-31T02:31:51;95269.91;;;7.25;100.00
71457;BME280;59263;48.160;11.752;2023-03-31T02:34:18;95243.38;;;7.05;100.00
71457;BME280;59263;48.160;11.752;2023-03-31T02:36:44;95247.72;;;7.05;100.00
71457;BME280;59263;48.160;11.752;2023-03-31T02:39:13;95275.19;;;7.23;100.00
71457;BME280;59263;48.160;11.752;2023-03-31T02:41:40;95233.88;;;7.15;100.00
71457;BME280;59263;48.160;11.752;2023-03-31T02:44:08;95263.94;;;7.44;100.00
71457;BME280;59263;48.160;11.752;2023-03-31T02:46:33;95237.38;;;7.43;100.00
71457;BME280;59263;48.160;11.752;2023-03-31T02:49:02;95266.22;;;7.57;100.00
71457;BME280;59263;48.160;11.752;2023-03-31T02:57:17;95256.69;;;7.67;100.00
71457;BME280;59263;48.160;11.752;2023-03-31T03:05:15;95289.50;;;7.65;100.00
71457;BME280;59263;48.160;11.752;2023-03-31T03:13:13;95263.94;;;7.34;100.00
71457;BME280;59263;48.160;11.752;2023-03-31T03:15:54;95235.75;;;7.23;100.00
71457;BME280;59263;48.160;11.752;2023-03-31T03:18:20;95259.31;;;7.47;100.00
71457;BME280;59263;48.160;11.752;2023-03-31T03:20:45;95229.69;;;7.24;100.00
71457;BME280;59263;48.160;11.752;2023-03-31T03:23:15;95254.16;;;7.47;100.00
71457;BME280;59263;48.160;11.752;2023-03-31T03:25:42;95220.19;;;7.24;100.00
71457;BME280;59263;48.160;11.752;2023-03-31T03:28:07;95236.31;;;7.26;100.00
71457;BME280;59263;48.160;11.752;2023-03-31T03:30:33;95245.78;;;7.26;100.00
71457;BME280;59263;48.160;11.752;2023-03-31T03:32:58;95243.09;;;7.27;100.00
71457;BME280;59263;48.160;11.752;2023-03-31T03:35:24;95248.50;;;7.24;100.00
71457;BME280;59263;48.160;11.752;2023-03-31T03:37:49;95260.16;;;7.38;100.00
71457;BME280;59263;48.160;11.752;2023-03-31T03:40:15;95250.41;;;7.32;100.00
71457;BME280;59263;48.160;11.752;2023-03-31T03:42:41;95254.06;;;7.20;100.00
71457;BME280;59263;48.160;11.752;2023-03-31T03:45:07;95240.38;;;7.00;100.00
71457;BME280;59263;48.160;11.752;2023-03-31T03:47:33;95274.66;;;7.20;100.00
71457;BME280;59263;48.160;11.752;2023-03-31T03:49:58;95247.97;;;7.01;100.00
71457;BME280;59263;48.160;11.752;2023-03-31T03:52:24;95269.34;;;7.12;100.00
71457;BME280;59263;48.160;11.752;2023-03-31T03:54:49;95265.84;;;7.13;100.00
71457;BME280;59263;48.160;11.752;2023-03-31T03:57:15;95241.34;;;6.99;100.00
71457;BME280;59263;48.160;11.752;2023-03-31T03:59:41;95284.25;;;7.27;100.00
71457;BME280;59263;48.160;11.752;2023-03-31T04:02:06;95270.72;;;7.16;100.00
71457;BME280;59263;48.160;11.752;2023-03-31T04:04:31;95268.81;;;7.18;100.00
71457;BME280;59263;48.160;11.752;2023-03-31T04:06:57;95260.16;;;7.19;100.00
71457;BME280;59263;48.160;11.752;2023-03-31T04:09:22;95230.09;;;7.10;100.00
71457;BME280;59263;48.160;11.752;2023-03-31T04:11:47;95201.94;;;6.98;100.00
71457;BME280;59263;48.160;11.752;2023-03-31T04:14:13;95232.25;;;7.24;100.00
71457;BME280;59263;48.160;11.752;2023-03-31T04:16:38;95215.19;;;7.23;100.00
71457;BME280;59263;48.160;11.752;2023-03-31T04:19:05;95233.88;;;7.25;100.00
71457;BME280;59263;48.160;11.752;2023-03-31T04:21:31;95195.97;;;7.08;100.00
71457;BME280;59263;48.160;11.752;2023-03-31T04:23:59;95216.00;;;7.23;100.00
71457;BME280;59263;48.160;11.752;2023-03-31T04:26:30;95202.19;;;7.15;100.00
71457;BME280;59263;48.160;11.752;2023-03-31T04:29:04;95186.50;;;7.08;100.00
71457;BME280;59263;48.160;11.752;2023-03-31T04:31:30;95195.03;;;7.09;100.00
71457;BME280;59263;48.160;11.752;2023-03-31T04:33:56;95170.53;;;6.95;100.00
71457;BME280;59263;48.160;11.752;2023-03-31T04:36:26;95176.34;;;7.07;100.00
71457;BME280;59263;48.160;11.752;2023-03-31T04:38:53;95190.56;;;7.20;100.00
71457;BME280;59263;48.160;11.752;2023-03-31T04:41:19;95175.13;;;7.20;100.00
71457;BME280;59263;48.160;11.752;2023-03-31T04:43:45;95176.19;;;7.18;100.00
71457;BME280;59263;48.160;11.752;2023-03-31T04:46:11;95149.66;;;7.08;100.00
71457;BME280;59263;48.160;11.752;2023-03-31T04:48:37;95128.59;;;6.94;100.00
71457;BME280;59263;48.160;11.752;2023-03-31T04:51:02;95136.97;;;7.06;100.00
71457;BME280;59263;48.160;11.752;2023-03-31T04:53:28;95129.41;;;7.05;100.00
71457;BME280;59263;48.160;11.752;2023-03-31T04:55:54;95141.56;;;7.12;100.00
71457;BME280;59263;48.160;11.752;2023-03-31T04:58:19;95158.88;;;7.20;100.00
71457;BME280;59263;48.160;11.752;2023-03-31T05:00:45;95147.78;;;7.10;100.00
71457;BME280;59263;48.160;11.752;2023-03-31T05:03:10;95145.34;;;7.08;100.00
71457;BME280;59263;48.160;11.752;2023-03-31T05:05:35;95127.75;;;7.03;100.00
71457;BME280;59263;48.160;11.752;2023-03-31T05:08:01;95135.41;;;7.23;100.00
71457;BME280;59263;48.160;11.752;2023-03-31T05:10:27;95073.06;;;7.01;100.00
71457;BME280;59263;48.160;11.752;2023-03-31T05:12:52;95044.63;;;7.03;100.00
71457;BME280;59263;48.160;11.752;2023-03-31T05:15:18;95074.19;;;7.26;100.00
71457;BME280;59263;48.160;11.752;2023-03-31T05:17:43;95047.28;;;7.21;100.00
71457;BME280;59263;48.160;11.752;2023-03-31T05:20:09;95046.56;;;7.28;100.00
71457;BME280;59263;48.160;11.752;2023-03-31T05:22:37;95009.84;;;7.09;100.00
71457;BME280;59263;48.160;11.752;2023-03-31T05:25:04;94992.09;;;7.06;100.00
71457;BME280;59263;48.160;11.752;2023-03-31T05:27:30;95014.91;;;7.18;100.00
71457;BME280;59263;48.160;11.752;2023-03-31T05:29:56;95009.34;;;7.23;100.00
71457;BME280;59263;48.160;11.752;2023-03-31T05:32:22;94973.16;;;6.97;100.00
71457;BME280;59263;48.160;11.752;2023-03-31T05:34:48;94966.50;;;7.04;100.00
71457;BME280;59263;48.160;11.752;2023-03-31T05:37:13;94969.91;;;7.05;100.00
71457;BME280;59263;48.160;11.752;2023-03-31T05:39:39;94972.84;;;7.19;100.00
71457;BME280;59263;48.160;11.752;2023-03-31T05:42:04;94939.34;;;7.01;100.00
71457;BME280;59263;48.160;11.752;2023-03-31T05:44:31;94929.59;;;6.95;100.00
71457;BME280;59263;48.160;11.752;2023-03-31T05:46:57;94955.81;;;7.09;100.00
71457;BME280;59263;48.160;11.752;2023-03-31T05:49:23;94962.56;;;7.10;100.00
71457;BME280;59263;48.160;11.752;2023-03-31T05:51:48;94943.53;;;7.02;100.00
71457;BME280;59263;48.160;11.752;2023-03-31T05:54:15;94914.84;;;6.97;100.00
71457;BME280;59263;48.160;11.752;2023-03-31T05:56:41;94942.38;;;7.15;100.00
71457;BME280;59263;48.160;11.752;2023-03-31T05:59:06;94925.56;;;7.20;100.00
71457;BME280;59263;48.160;11.752;2023-03-31T06:01:32;94918.06;;;7.27;100.00
71457;BME280;59263;48.160;11.752;2023-03-31T06:03:57;94904.16;;;7.38;100.00
71457;BME280;59263;48.160;11.752;2023-03-31T06:06:22;94868.22;;;7.28;100.00
71457;BME280;59263;48.160;11.752;2023-03-31T06:08:49;94904.09;;;7.47;100.00
71457;BME280;59263;48.160;11.752;2023-03-31T06:11:17;94863.09;;;7.28;100.00
71457;BME280;59263;48.160;11.752;2023-03-31T06:13:44;94876.00;;;7.36;100.00
71457;BME280;59263;48.160;11.752;2023-03-31T06:16:11;94876.47;;;7.49;100.00
71457;BME280;59263;48.160;11.752;2023-03-31T06:18:36;94835.53;;;7.38;100.00
71457;BME280;59263;48.160;11.752;2023-03-31T06:21:02;94856.06;;;7.74;100.00
71457;BME280;59263;48.160;11.752;2023-03-31T06:23:28;94833.06;;;7.55;100.00
71457;BME280;59263;48.160;11.752;2023-03-31T06:25:53;94849.47;;;7.71;100.00
71457;BME280;59263;48.160;11.752;2023-03-31T06:28:20;94845.22;;;7.88;100.00
71457;BME280;59263;48.160;11.752;2023-03-31T06:30:45;94829.19;;;7.94;100.00
71457;BME280;59263;48.160;11.752;2023-03-31T06:33:11;94820.19;;;7.98;100.00
71457;BME280;59263;48.160;11.752;2023-03-31T06:35:37;94794.44;;;7.98;100.00
71457;BME280;59263;48.160;11.752;2023-03-31T06:38:03;94785.38;;;7.94;100.00
71457;BME280;59263;48.160;11.752;2023-03-31T06:40:28;94774.09;;;7.87;100.00
71457;BME280;59263;48.160;11.752;2023-03-31T06:42:54;94777.38;;;7.97;100.00
71457;BME280;59263;48.160;11.752;2023-03-31T06:45:19;94777.75;;;8.11;100.00
71457;BME280;59263;48.160;11.752;2023-03-31T06:47:45;94775.84;;;8.13;100.00
71457;BME280;59263;48.160;11.752;2023-03-31T06:50:10;94796.13;;;8.16;100.00
71457;BME280;59263;48.160;11.752;2023-03-31T06:52:36;94801.09;;;8.09;100.00
71457;BME280;59263;48.160;11.752;2023-03-31T06:55:02;94779.69;;;8.09;100.00
71457;BME280;59263;48.160;11.752;2023-03-31T06:57:28;94770.75;;;8.29;100.00
71457;BME280;59263;48.160;11.752;2023-03-31T06:59:55;94765.59;;;8.29;100.00
71457;BME280;59263;48.160;11.752;2023-03-31T07:02:21;94775.50;;;8.42;100.00
71457;BME280;59263;48.160;11.752;2023-03-31T07:04:46;94798.56;;;8.52;100.00
71457;BME280;59263;48.160;11.752;2023-03-31T07:07:17;94781.78;;;8.39;100.00
71457;BME280;59263;48.160;11.752;2023-03-31T07:09:53;94764.59;;;8.22;100.00
71457;BME280;59263;48.160;11.752;2023-03-31T07:12:38;94782.91;;;8.11;100.00
71457;BME280;59263;48.160;11.752;2023-03-31T07:15:07;94785.44;;;8.03;100.00
71457;BME280;59263;48.160;11.752;2023-03-31T07:17:32;94825.47;;;7.97;100.00
71457;BME280;59263;48.160;11.752;2023-03-31T07:19:57;94893.28;;;8.23;100.00
71457;BME280;59263;48.160;11.752;2023-03-31T07:22:24;94939.84;;;8.04;100.00
71457;BME280;59263;48.160;11.752;2023-03-31T07:24:50;94915.59;;;8.15;100.00
71457;BME280;59263;48.160;11.752;2023-03-31T07:27:15;94929.34;;;7.97;100.00
71457;BME280;59263;48.160;11.752;2023-03-31T07:29:41;94876.72;;;7.82;100.00
71457;BME280;59263;48.160;11.752;2023-03-31T07:32:06;94915.56;;;7.71;100.00
71457;BME280;59263;48.160;11.752;2023-03-31T07:34:31;94918.88;;;7.81;100.00
71457;BME280;59263;48.160;11.752;2023-03-31T07:36:57;94936.03;;;7.90;100.00
71457;BME280;59263;48.160;11.752;2023-03-31T07:39:22;94945.03;;;7.86;100.00
71457;BME280;59263;48.160;11.752;2023-03-31T07:41:53;94947.16;;;7.91;100.00
71457;BME280;59263;48.160;11.752;2023-03-31T07:44:20;94905.09;;;7.64;100.00
71457;BME280;59263;48.160;11.752;2023-03-31T07:46:47;94896.00;;;7.78;100.00
71457;BME280;59263;48.160;11.752;2023-03-31T07:49:12;94891.88;;;7.85;100.00
71457;BME280;59263;48.160;11.752;2023-03-31T07:51:40;94892.19;;;8.08;100.00
71457;BME280;59263;48.160;11.752;2023-03-31T07:54:06;94877.56;;;8.09;100.00
71457;BME280;59263;48.160;11.752;2023-03-31T07:56:32;94880.91;;;8.27;100.00
71457;BME280;59263;48.160;11.752;2023-03-31T07:58:57;94832.94;;;8.08;100.00
71457;BME280;59263;48.160;11.752;2023-03-31T08:01:23;94857.41;;;8.30;100.00
71457;BME280;59263;48.160;11.752;2023-03-31T08:03:50;94837.81;;;8.37;100.00
71457;BME280;59263;48.160;11.752;2023-03-31T08:06:19;94849.06;;;8.36;100.00
71457;BME280;59263;48.160;11.752;2023-03-31T08:08:45;94821.31;;;8.30;100.00
71457;BME280;59263;48.160;11.752;2023-03-31T08:11:10;94806.22;;;8.35;100.00
71457;BME280;59263;48.160;11.752;2023-03-31T08:13:35;94777.66;;;8.63;100.00
71457;BME280;59263;48.160;11.752;2023-03-31T08:16:02;94769.31;;;8.77;100.00
71457;BME280;59263;48.160;11.752;2023-03-31T08:18:31;94749.03;;;8.90;100.00
71457;BME280;59263;48.160;11.752;2023-03-31T08:20:57;94792.91;;;9.23;100.00
71457;BME280;59263;48.160;11.752;2023-03-31T08:23:22;94782.44;;;9.16;100.00
71457;BME280;59263;48.160;11.752;2023-03-31T08:25:48;94803.56;;;9.12;100.00
71457;BME280;59263;48.160;11.752;2023-03-31T08:28:19;94741.59;;;8.79;100.00
71457;BME280;59263;48.160;11.752;2023-03-31T08:30:44;94758.38;;;9.00;100.00
71457;BME280;59263;48.160;11.752;2023-03-31T08:33:10;94778.41;;;9.06;100.00
71457;BME280;59263;48.160;11.752;2023-03-31T08:35:39;94764.03;;;8.95;100.00
71457;BME280;59263;48.160;11.752;2023-03-31T08:38:04;94780.31;;;9.04;100.00
71457;BME280;59263;48.160;11.752;2023-03-31T08:40:31;94778.03;;;8.92;100.00
71457;BME280;59263;48.160;11.752;2023-03-31T08:43:01;94765.81;;;8.94;100.00
71457;BME280;59263;48.160;11.752;2023-03-31T08:45:33;94726.94;;;8.71;100.00
71457;BME280;59263;48.160;11.752;2023-03-31T08:48:09;94752.09;;;8.94;100.00
71457;BME280;59263;48.160;11.752;2023-03-31T08:50:46;94738.66;;;8.58;100.00
71457;BME280;59263;48.160;11.752;2023-03-31T08:53:23;94792.69;;;8.76;100.00
71457;BME280;59263;48.160;11.752;2023-03-31T08:55:51;94820.38;;;8.65;100.00
71457;BME280;59263;48.160;11.752;2023-03-31T08:58:33;94811.47;;;8.52;100.00
71457;BME280;59263;48.160;11.752;2023-03-31T09:12:17;94839.06;;;9.26;100.00
71457;BME280;59263;48.160;11.752;2023-03-31T09:17:23;94808.75;;;9.28;100.00
71457;BME280;59263;48.160;11.752;2023-03-31T09:19:57;94834.91;;;9.58;100.00
71457;BME280;59263;48.160;11.752;2023-03-31T09:22:30;94794.91;;;9.45;100.00
71457;BME280;59263;48.160;11.752;2023-03-31T09:27:38;94767.13;;;9.31;100.00
71457;BME280;59263;48.160;11.752;2023-03-31T09:32:37;94830.38;;;9.84;100.00
71457;BME280;59263;48.160;11.752;2023-03-31T09:35:21;94778.56;;;9.78;100.00
71457;BME280;59263;48.160;11.752;2023-03-31T09:37:48;94775.47;;;9.99;100.00
71457;BME280;59263;48.160;11.752;2023-03-31T09:40:27;94794.16;;;10.17;100.00
71457;BME280;59263;48.160;11.752;2023-03-31T09:43:03;94776.34;;;10.30;100.00
71457;BME280;59263;48.160;11.752;2023-03-31T09:45:29;94739.78;;;10.41;100.00
71457;BME280;59263;48.160;11.752;2023-03-31T09:48:02;94763.56;;;10.76;100.00
71457;BME280;59263;48.160;11.752;2023-03-31T09:50:32;94772.28;;;10.75;100.00
71457;BME280;59263;48.160;11.752;2023-03-31T09:53:03;94765.41;;;10.90;100.00
71457;BME280;59263;48.160;11.752;2023-03-31T09:55:43;94762.53;;;10.85;100.00
71457;BME280;59263;48.160;11.752;2023-03-31T09:58:15;94762.72;;;10.84;100.00
71457;BME280;59263;48.160;11.752;2023-03-31T10:00:42;94773.94;;;10.99;100.00
71457;BME280;59263;48.160;11.752;2023-03-31T10:03:11;94755.16;;;10.74;100.00
71457;BME280;59263;48.160;11.752;2023-03-31T10:05:48;94784.75;;;11.03;100.00
71457;BME280;59263;48.160;11.752;2023-03-31T10:08:30;94786.28;;;11.20;100.00
71457;BME280;59263;48.160;11.752;2023-03-31T10:13:35;94758.53;;;11.29;100.00
71457;BME280;59263;48.160;11.752;2023-03-31T10:16:06;94774.72;;;11.46;100.00
71457;BME280;59263;48.160;11.752;2023-03-31T10:18:38;94773.91;;;11.45;100.00
71457;BME280;59263;48.160;11.752;2023-03-31T10:21:06;94757.59;;;11.45;100.00
71457;BME280;59263;48.160;11.752;2023-03-31T10:23:34;94757.47;;;11.61;100.00
71457;BME280;59263;48.160;11.752;2023-03-31T10:26:01;94746.38;;;11.67;100.00
71457;BME280;59263;48.160;11.752;2023-03-31T10:28:31;94721.06;;;11.92;100.00
71457;BME280;59263;48.160;11.752;2023-03-31T10:30:59;94738.22;;;12.08;100.00
71457;BME280;59263;48.160;11.752;2023-03-31T10:33:31;94734.47;;;11.96;100.00
71457;BME280;59263;48.160;11.752;2023-03-31T10:36:00;94734.13;;;11.99;100.00
71457;BME280;59263;48.160;11.752;2023-03-31T10:38:45;94718.03;;;11.89;100.00
71457;BME280;59263;48.160;11.752;2023-03-31T10:41:20;94725.34;;;12.15;100.00
71457;BME280;59263;48.160;11.752;2023-03-31T10:43:51;94692.03;;;12.48;100.00
71457;BME280;59263;48.160;11.752;2023-03-31T10:46:17;94703.44;;;12.68;100.00
71457;BME280;59263;48.160;11.752;2023-03-31T10:48:43;94676.97;;;12.58;100.00
71457;BME280;59263;48.160;11.752;2023-03-31T10:51:14;94696.53;;;12.97;100.00
71457;BME280;59263;48.160;11.752;2023-03-31T10:59:13;94681.69;;;13.34;100.00
71457;BME280;59263;48.160;11.752;2023-03-31T11:07:27;94646.22;;;14.23;100.00
71457;BME280;59263;48.160;11.752;2023-03-31T11:12:59;94634.78;;;13.42;100.00
71457;BME280;59263;48.160;11.752;2023-03-31T11:15:47;94645.72;;;13.09;100.00
71457;BME280;59263;48.160;11.752;2023-03-31T11:23:49;94632.22;;;12.56;100.00
71457;BME280;59263;48.160;11.752;2023-03-31T11:32:24;94747.53;;;11.27;100.00
71457;BME280;59263;48.160;11.752;2023-03-31T11:37:55;94800.34;;;9.75;100.00
71457;BME280;59263;48.160;11.752;2023-03-31T11:43:11;94711.94;;;9.08;100.00
71457;BME280;59263;48.160;11.752;2023-03-31T11:45:45;94724.53;;;8.94;100.00
71457;BME280;59263;48.160;11.752;2023-03-31T11:48:32;94728.53;;;8.97;100.00
71457;BME280;59263;48.160;11.752;2023-03-31T11:51:02;94658.09;;;8.72;100.00
71457;BME280;59263;48.160;11.752;2023-03-31T11:53:32;94671.63;;;9.15;100.00
71457;BME280;59263;48.160;11.752;2023-03-31T11:55:59;94666.75;;;9.36;100.00
71457;BME280;59263;48.160;11.752;2023-03-31T11:58:34;94646.41;;;9.50;100.00
71457;BME280;59263;48.160;11.752;2023-03-31T12:01:08;94647.38;;;9.57;100.00
71457;BME280;59263;48.160;11.752;2023-03-31T12:06:17;94594.09;;;9.56;100.00
71457;BME280;59263;48.160;11.752;2023-03-31T12:09:04;94614.97;;;9.85;100.00
71457;BME280;59263;48.160;11.752;2023-03-31T12:11:54;94608.47;;;9.98;100.00
71457;BME280;59263;48.160;11.752;2023-03-31T12:14:36;94593.88;;;10.05;100.00
71457;BME280;59263;48.160;11.752;2023-03-31T12:17:17;94588.28;;;10.24;100.00
71457;BME280;59263;48.160;11.752;2023-03-31T12:19:49;94558.22;;;10.31;100.00
71457;BME280;59263;48.160;11.752;2023-03-31T12:22:33;94578.75;;;11.23;100.00
71457;BME280;59263;48.160;11.752;2023-03-31T12:25:12;94558.47;;;11.86;100.00
71457;BME280;59263;48.160;11.752;2023-03-31T12:27:44;94526.88;;;10.87;100.00
71457;BME280;59263;48.160;11.752;2023-03-31T12:30:28;94580.25;;;11.03;100.00
71457;BME280;59263;48.160;11.752;2023-03-31T12:33:02;94575.41;;;10.85;100.00
71457;BME280;59263;48.160;11.752;2023-03-31T12:38:35;94573.31;;;11.18;100.00
71457;BME280;59263;48.160;11.752;2023-03-31T12:41:14;94548.94;;;11.57;100.00
71457;BME280;59263;48.160;11.752;2023-03-31T12:49:32;94573.50;;;11.31;100.00
71457;BME280;59263;48.160;11.752;2023-03-31T12:52:07;94577.88;;;11.16;100.00
71457;BME280;59263;48.160;11.752;2023-03-31T12:57:26;94559.63;;;10.95;100.00
71457;BME280;59263;48.160;11.752;2023-03-31T13:02:37;94569.81;;;11.11;100.00
71457;BME280;59263;48.160;11.752;2023-03-31T13:08:03;94572.75;;;11.97;100.00
71457;BME280;59263;48.160;11.752;2023-03-31T13:10:30;94586.66;;;12.47;100.00
71457;BME280;59263;48.160;11.752;2023-03-31T13:13:13;94581.16;;;12.35;100.00
71457;BME280;59263;48.160;11.752;2023-03-31T13:15:49;94544.44;;;11.80;100.00
71457;BME280;59263;48.160;11.752;2023-03-31T13:18:19;94583.84;;;12.05;100.00
71457;BME280;59263;48.160;11.752;2023-03-31T13:20:45;94537.47;;;11.66;100.00
71457;BME280;59263;48.160;11.752;2023-03-31T13:25:42;94573.31;;;11.48;100.00
71457;BME280;59263;48.160;11.752;2023-03-31T13:28:15;94578.94;;;11.36;100.00
71457;BME280;59263;48.160;11.752;2023-03-31T13:33:20;94437.91;;;11.03;100.00
71457;BME280;59263;48.160;11.752;2023-03-31T13:39:07;94499.47;;;10.93;100.00
71457;BME280;59263;48.160;11.752;2023-03-31T13:47:39;94489.41;;;11.27;100.00
71457;BME280;59263;48.160;11.752;2023-03-31T13:56:11;94516.50;;;11.61;100.00
71457;BME280;59263;48.160;11.752;2023-03-31T13:59:09;94538.94;;;12.05;100.00
71457;BME280;59263;48.160;11.752;2023-03-31T14:07:28;94508.59;;;12.70;100.00
71457;BME280;59263;48.160;11.752;2023-03-31T14:09:55;94504.28;;;12.27;100.00
71457;BME280;59263;48.160;11.752;2023-03-31T14:14:55;94523.84;;;11.94;100.00
71457;BME280;59263;48.160;11.752;2023-03-31T14:17:27;94528.19;;;11.86;100.00
71457;BME280;59263;48.160;11.752;2023-03-31T14:22:56;94496.50;;;11.40;100.00
71457;BME280;59263;48.160;11.752;2023-03-31T14:33:19;94545.38;;;11.28;100.00
71457;BME280;59263;48.160;11.752;2023-03-31T14:36:08;94553.16;;;11.28;100.00
71457;BME280;59263;48.160;11.752;2023-03-31T14:38:37;94486.88;;;11.19;100.00
71457;BME280;59263;48.160;11.752;2023-03-31T14:41:03;94521.00;;;11.23;100.00
71457;BME280;59263;48.160;11.752;2023-03-31T14:43:31;94537.31;;;11.23;100.00
71457;BME280;59263;48.160;11.752;2023-03-31T14:46:02;94546.88;;;11.08;100.00
71457;BME280;59263;48.160;11.752;2023-03-31T14:48:29;94570.41;;;10.46;100.00
71457;BME280;59263;48.160;11.752;2023-03-31T14:50:59;94599.91;;;9.58;100.00
71457;BME280;59263;48.160;11.752;2023-03-31T14:53:25;94662.59;;;8.78;100.00
71457;BME280;59263;48.160;11.752;2023-03-31T14:56:15;94612.44;;;7.81;100.00
71457;BME280;59263;48.160;11.752;2023-03-31T14:58:47;94629.16;;;7.69;100.00
71457;BME280;59263;48.160;11.752;2023-03-31T15:01:18;94606.97;;;7.76;100.00
71457;BME280;59263;48.160;11.752;2023-03-31T15:03:48;94605.19;;;7.68;100.00
71457;BME280;59263;48.160;11.752;2023-03-31T15:06:14;94627.09;;;7.81;100.00
71457;BME280;59263;48.160;11.752;2023-03-31T15:08:40;94594.72;;;7.78;100.00
71457;BME280;59263;48.160;11.752;2023-03-31T15:11:14;94550.81;;;7.71;100.00
71457;BME280;59263;48.160;11.752;2023-03-31T15:13:42;94545.94;;;8.43;100.00
71457;BME280;59263;48.160;11.752;2023-03-31T15:16:37;94549.13;;;8.78;100.00
71457;BME280;59263;48.160;11.752;2023-03-31T15:19:19;94531.97;;;9.10;100.00
71457;BME280;59263;48.160;11.752;2023-03-31T15:21:45;94532.31;;;9.07;100.00
71457;BME280;59263;48.160;11.752;2023-03-31T15:24:12;94525.38;;;8.99;100.00